sensor_id;sensor_type;location;lat;lon;timestamp;temperature;humidity
42833;DHT22;64089;51.478;5.692;2024-01-25T00:01:10;9.10;99.90
42833;DHT22;64089;51.478;5.692;2024-01-25T00:03:35;9.00;99.90
42833;DHT22;64089;51.478;5.692;2024-01-25T00:06:01;9.00;99.90
42833;DHT22;64089;51.478;5.692;2024-01-25T00:08:27;9.00;99.90
42833;DHT22;64089;51.478;5.692;2024-01-25T00:10:53;9.00;99.90
42833;DHT22;64089;51.478;5.692;2024-01-25T00:13:19;8.90;99.90
42833;DHT22;64089;51.478;5.692;2024-01-25T00:15:44;8.80;99.90
42833;DHT22;64089;51.478;5.692;2024-01-25T00:18:10;8.80;99.90
42833;DHT22;64089;51.478;5.692;2024-01-25T00:20:35;8.70;99.90
42833;DHT22;64089;51.478;5.692;2024-01-25T00:23:01;8.70;99.90
42833;DHT22;64089;51.478;5.692;2024-01-25T00:25:27;8.70;99.90
42833;DHT22;64089;51.478;5.692;2024-01-25T00:27:52;8.70;99.90
42833;DHT22;64089;51.478;5.692;2024-01-25T00:30:18;8.70;99.90
42833;DHT22;64089;51.478;5.692;2024-01-25T00:32:44;8.60;99.90
42833;DHT22;64089;51.478;5.692;2024-01-25T00:35:10;8.60;99.90
42833;DHT22;64089;51.478;5.692;2024-01-25T00:37:37;8.60;99.90
42833;DHT22;64089;51.478;5.692;2024-01-25T00:40:03;8.50;99.90
42833;DHT22;64089;51.478;5.692;2024-01-25T00:42:30;8.50;99.90
42833;DHT22;64089;51.478;5.692;2024-01-25T00:44:56;8.50;99.90
42833;DHT22;64089;51.478;5.692;2024-01-25T00:47:22;8.40;99.90
42833;DHT22;64089;51.478;5.692;2024-01-25T00:49:48;8.40;99.90
42833;DHT22;64089;51.478;5.692;2024-01-25T00:52:14;8.40;99.90
42833;DHT22;64089;51.478;5.692;2024-01-25T00:54:40;8.40;99.90
42833;DHT22;64089;51.478;5.692;2024-01-25T00:57:07;8.30;99.90
42833;DHT22;64089;51.478;5.692;2024-01-25T00:59:33;8.20;99.90
42833;DHT22;64089;51.478;5.692;2024-01-25T01:01:59;8.20;99.90
42833;DHT22;64089;51.478;5.692;2024-01-25T01:04:26;8.10;99.90
42833;DHT22;64089;51.478;5.692;2024-01-25T01:06:52;8.20;99.90
42833;DHT22;64089;51.478;5.692;2024-01-25T01:09:17;8.20;99.90
42833;DHT22;64089;51.478;5.692;2024-01-25T01:11:43;8.10;99.90
42833;DHT22;64089;51.478;5.692;2024-01-25T01:14:09;8.10;99.90
42833;DHT22;64089;51.478;5.692;2024-01-25T01:16:35;8.10;99.90
42833;DHT22;64089;51.478;5.692;2024-01-25T01:19:01;8.20;99.90
42833;DHT22;64089;51.478;5.692;2024-01-25T01:21:32;8.10;99.90
42833;DHT22;64089;51.478;5.692;2024-01-25T01:23:57;8.10;99.90
42833;DHT22;64089;51.478;5.692;2024-01-25T01:26:23;8.10;99.90
42833;DHT22;64089;51.478;5.692;2024-01-25T01:28:49;8.00;99.90
42833;DHT22;64089;51.478;5.692;2024-01-25T01:31:15;8.00;99.90
42833;DHT22;64089;51.478;5.692;2024-01-25T01:33:40;8.00;99.90
42833;DHT22;64089;51.478;5.692;2024-01-25T01:36:06;7.90;99.90
42833;DHT22;64089;51.478;5.692;2024-01-25T01:38:32;8.00;99.90
42833;DHT22;64089;51.478;5.692;2024-01-25T01:40:57;8.00;99.90
42833;DHT22;64089;51.478;5.692;2024-01-25T01:43:23;7.90;99.90
42833;DHT22;64089;51.478;5.692;2024-01-25T01:45:49;7.80;99.90
42833;DHT22;64089;51.478;5.692;2024-01-25T01:48:16;7.70;99.90
42833;DHT22;64089;51.478;5.692;2024-01-25T01:50:43;7.70;99.90
42833;DHT22;64089;51.478;5.692;2024-01-25T01:53:10;7.70;99.90
42833;DHT22;64089;51.478;5.692;2024-01-25T01:55:36;7.70;99.90
42833;DHT22;64089;51.478;5.692;2024-01-25T01:58:02;7.70;99.90
42833;DHT22;64089;51.478;5.692;2024-01-25T02:00:30;7.80;99.90
42833;DHT22;64089;51.478;5.692;2024-01-25T02:02:56;7.80;99.90
42833;DHT22;64089;51.478;5.692;2024-01-25T02:05:23;7.70;99.90
42833;DHT22;64089;51.478;5.692;2024-01-25T02:07:49;7.70;99.90
42833;DHT22;64089;51.478;5.692;2024-01-25T02:10:15;7.60;99.90
42833;DHT22;64089;51.478;5.692;2024-01-25T02:12:41;7.60;99.90
42833;DHT22;64089;51.478;5.692;2024-01-25T02:15:06;7.50;99.90
42833;DHT22;64089;51.478;5.692;2024-01-25T02:17:33;7.40;99.90
42833;DHT22;64089;51.478;5.692;2024-01-25T02:19:58;7.30;99.90
42833;DHT22;64089;51.478;5.692;2024-01-25T02:22:26;7.30;99.90
42833;DHT22;64089;51.478;5.692;2024-01-25T02:24:51;7.20;99.90
42833;DHT22;64089;51.478;5.692;2024-01-25T02:27:17;7.20;99.90
42833;DHT22;64089;51.478;5.692;2024-01-25T02:29:42;7.20;99.90
42833;DHT22;64089;51.478;5.692;2024-01-25T02:32:08;7.30;99.90
42833;DHT22;64089;51.478;5.692;2024-01-25T02:34:34;7.30;99.90
42833;DHT22;64089;51.478;5.692;2024-01-25T02:36:59;7.30;99.90
42833;DHT22;64089;51.478;5.692;2024-01-25T02:39:25;7.30;99.90
42833;DHT22;64089;51.478;5.692;2024-01-25T02:41:53;7.20;99.90
42833;DHT22;64089;51.478;5.692;2024-01-25T02:44:19;7.10;99.90
42833;DHT22;64089;51.478;5.692;2024-01-25T02:46:45;7.10;99.90
42833;DHT22;64089;51.478;5.692;2024-01-25T02:49:12;7.10;99.90
42833;DHT22;64089;51.478;5.692;2024-01-25T02:51:37;7.10;99.90
42833;DHT22;64089;51.478;5.692;2024-01-25T02:54:03;7.10;99.90
42833;DHT22;64089;51.478;5.692;2024-01-25T02:56:28;7.00;99.90
42833;DHT22;64089;51.478;5.692;2024-01-25T02:59:01;7.00;99.90
42833;DHT22;64089;51.478;5.692;2024-01-25T03:01:26;7.10;99.90
42833;DHT22;64089;51.478;5.692;2024-01-25T03:03:53;7.10;99.90
42833;DHT22;64089;51.478;5.692;2024-01-25T03:06:18;7.10;99.90
42833;DHT22;64089;51.478;5.692;2024-01-25T03:08:44;7.10;99.90
42833;DHT22;64089;51.478;5.692;2024-01-25T03:11:09;7.00;99.90
42833;DHT22;64089;51.478;5.692;2024-01-25T03:13:35;7.00;99.90
42833;DHT22;64089;51.478;5.692;2024-01-25T03:16:01;7.00;99.90
42833;DHT22;64089;51.478;5.692;2024-01-25T03:18:26;7.00;99.90
42833;DHT22;64089;51.478;5.692;2024-01-25T03:20:52;7.00;99.90
42833;DHT22;64089;51.478;5.692;2024-01-25T03:23:18;6.90;99.90
42833;DHT22;64089;51.478;5.692;2024-01-25T03:25:43;6.90;99.90
42833;DHT22;64089;51.478;5.692;2024-01-25T03:28:09;6.90;99.90
42833;DHT22;64089;51.478;5.692;2024-01-25T03:30:36;6.80;99.90
42833;DHT22;64089;51.478;5.692;2024-01-25T03:33:02;6.80;99.90
42833;DHT22;64089;51.478;5.692;2024-01-25T03:35:27;6.80;99.90
42833;DHT22;64089;51.478;5.692;2024-01-25T03:37:53;6.70;99.90
42833;DHT22;64089;51.478;5.692;2024-01-25T03:40:19;6.70;99.90
42833;DHT22;64089;51.478;5.692;2024-01-25T03:42:44;6.70;99.90
42833;DHT22;64089;51.478;5.692;2024-01-25T03:45:10;6.60;99.90
42833;DHT22;64089;51.478;5.692;2024-01-25T03:47:35;6.60;99.90
42833;DHT22;64089;51.478;5.692;2024-01-25T03:50:01;6.60;99.90
42833;DHT22;64089;51.478;5.692;2024-01-25T03:52:27;6.60;99.90
42833;DHT22;64089;51.478;5.692;2024-01-25T03:54:55;6.50;99.90
42833;DHT22;64089;51.478;5.692;2024-01-25T03:57:21;6.50;99.90
42833;DHT22;64089;51.478;5.692;2024-01-25T03:59:46;6.50;99.90
42833;DHT22;64089;51.478;5.692;2024-01-25T04:02:12;6.50;99.90
42833;DHT22;64089;51.478;5.692;2024-01-25T04:04:38;6.40;99.90
42833;DHT22;64089;51.478;5.692;2024-01-25T04:07:03;6.40;99.90
42833;DHT22;64089;51.478;5.692;2024-01-25T04:09:29;6.40;99.90
42833;DHT22;64089;51.478;5.692;2024-01-25T04:11:55;6.30;99.90
42833;DHT22;64089;51.478;5.692;2024-01-25T04:14:21;6.30;99.90
42833;DHT22;64089;51.478;5.692;2024-01-25T04:16:47;6.30;99.90
42833;DHT22;64089;51.478;5.692;2024-01-25T04:19:12;6.30;99.90
42833;DHT22;64089;51.478;5.692;2024-01-25T04:21:38;6.30;99.90
42833;DHT22;64089;51.478;5.692;2024-01-25T04:24:04;6.20;99.90
42833;DHT22;64089;51.478;5.692;2024-01-25T04:26:30;6.20;99.90
42833;DHT22;64089;51.478;5.692;2024-01-25T04:28:57;6.10;99.90
42833;DHT22;64089;51.478;5.692;2024-01-25T04:31:23;6.10;99.90
42833;DHT22;64089;51.478;5.692;2024-01-25T04:33:48;6.00;99.90
42833;DHT22;64089;51.478;5.692;2024-01-25T04:36:15;5.90;99.90
42833;DHT22;64089;51.478;5.692;2024-01-25T04:38:40;6.00;99.90
42833;DHT22;64089;51.478;5.692;2024-01-25T04:41:06;5.90;99.90
42833;DHT22;64089;51.478;5.692;2024-01-25T04:43:35;5.90;99.90
42833;DHT22;64089;51.478;5.692;2024-01-25T04:46:02;5.80;99.90
42833;DHT22;64089;51.478;5.692;2024-01-25T04:48:28;5.90;99.90
42833;DHT22;64089;51.478;5.692;2024-01-25T04:50:55;6.00;99.90
42833;DHT22;64089;51.478;5.692;2024-01-25T04:53:21;5.90;99.90
42833;DHT22;64089;51.478;5.692;2024-01-25T04:55:47;5.90;99.90
42833;DHT22;64089;51.478;5.692;2024-01-25T04:58:12;5.90;99.90
42833;DHT22;64089;51.478;5.692;2024-01-25T05:00:38;5.80;99.90
42833;DHT22;64089;51.478;5.692;2024-01-25T05:03:05;5.70;99.90
42833;DHT22;64089;51.478;5.692;2024-01-25T05:05:30;5.70;99.90
42833;DHT22;64089;51.478;5.692;2024-01-25T05:07:56;5.70;99.90
42833;DHT22;64089;51.478;5.692;2024-01-25T05:10:22;5.70;99.90
42833;DHT22;64089;51.478;5.692;2024-01-25T05:12:48;5.70;99.90
42833;DHT22;64089;51.478;5.692;2024-01-25T05:15:14;5.70;99.90
42833;DHT22;64089;51.478;5.692;2024-01-25T05:17:40;5.70;99.90
42833;DHT22;64089;51.478;5.692;2024-01-25T05:20:06;5.60;99.90
42833;DHT22;64089;51.478;5.692;2024-01-25T05:22:32;5.70;99.90
42833;DHT22;64089;51.478;5.692;2024-01-25T05:24:57;5.70;99.90
42833;DHT22;64089;51.478;5.692;2024-01-25T05:27:23;5.70;99.90
42833;DHT22;64089;51.478;5.692;2024-01-25T05:29:49;5.60;99.90
42833;DHT22;64089;51.478;5.692;2024-01-25T05:32:17;5.60;99.90
42833;DHT22;64089;51.478;5.692;2024-01-25T05:34:43;5.60;99.90
42833;DHT22;64089;51.478;5.692;2024-01-25T05:37:08;5.60;99.90
42833;DHT22;64089;51.478;5.692;2024-01-25T05:39:34;5.60;99.90
42833;DHT22;64089;51.478;5.692;2024-01-25T05:42:00;5.50;99.90
42833;DHT22;64089;51.478;5.692;2024-01-25T05:44:25;5.50;99.90
42833;DHT22;64089;51.478;5.692;2024-01-25T05:46:51;5.50;99.90
42833;DHT22;64089;51.478;5.692;2024-01-25T05:49:16;5.50;99.90
42833;DHT22;64089;51.478;5.692;2024-01-25T05:51:42;5.40;99.90
42833;DHT22;64089;51.478;5.692;2024-01-25T05:54:07;5.40;99.90
42833;DHT22;64089;51.478;5.692;2024-01-25T05:56:33;5.40;99.90
42833;DHT22;64089;51.478;5.692;2024-01-25T05:58:59;5.40;99.90
42833;DHT22;64089;51.478;5.692;2024-01-25T06:01:24;5.30;99.90
42833;DHT22;64089;51.478;5.692;2024-01-25T06:03:50;5.30;99.90
42833;DHT22;64089;51.478;5.692;2024-01-25T06:06:16;5.30;99.90
42833;DHT22;64089;51.478;5.692;2024-01-25T06:08:41;5.20;99.90
42833;DHT22;64089;51.478;5.692;2024-01-25T06:11:07;5.20;99.90
42833;DHT22;64089;51.478;5.692;2024-01-25T06:13:35;5.20;99.90
42833;DHT22;64089;51.478;5.692;2024-01-25T06:16:00;5.10;99.90
42833;DHT22;64089;51.478;5.692;2024-01-25T06:18:27;5.10;99.90
42833;DHT22;64089;51.478;5.692;2024-01-25T06:20:53;5.10;99.90
42833;DHT22;64089;51.478;5.692;2024-01-25T06:23:18;5.00;99.90
42833;DHT22;64089;51.478;5.692;2024-01-25T06:25:44;5.00;99.90
42833;DHT22;64089;51.478;5.692;2024-01-25T06:28:09;5.00;99.90
42833;DHT22;64089;51.478;5.692;2024-01-25T06:30:35;4.90;99.90
42833;DHT22;64089;51.478;5.692;2024-01-25T06:33:01;4.80;99.90
42833;DHT22;64089;51.478;5.692;2024-01-25T06:35:26;4.70;99.90
42833;DHT22;64089;51.478;5.692;2024-01-25T06:37:52;4.70;99.90
42833;DHT22;64089;51.478;5.692;2024-01-25T06:40:17;4.60;99.90
42833;DHT22;64089;51.478;5.692;2024-01-25T06:42:43;4.50;99.90
42833;DHT22;64089;51.478;5.692;2024-01-25T06:45:10;4.50;99.90
42833;DHT22;64089;51.478;5.692;2024-01-25T06:47:35;4.50;99.90
42833;DHT22;64089;51.478;5.692;2024-01-25T06:50:01;4.50;99.90
42833;DHT22;64089;51.478;5.692;2024-01-25T06:52:27;4.40;99.90
42833;DHT22;64089;51.478;5.692;2024-01-25T06:54:53;4.40;99.90
42833;DHT22;64089;51.478;5.692;2024-01-25T06:57:19;4.30;99.90
42833;DHT22;64089;51.478;5.692;2024-01-25T06:59:45;4.30;99.90
42833;DHT22;64089;51.478;5.692;2024-01-25T07:02:11;4.20;99.90
42833;DHT22;64089;51.478;5.692;2024-01-25T07:04:37;4.20;99.90
42833;DHT22;64089;51.478;5.692;2024-01-25T07:07:06;4.20;99.90
42833;DHT22;64089;51.478;5.692;2024-01-25T07:09:31;4.20;99.90
42833;DHT22;64089;51.478;5.692;2024-01-25T07:11:57;4.10;99.90
42833;DHT22;64089;51.478;5.692;2024-01-25T07:14:23;4.10;99.90
42833;DHT22;64089;51.478;5.692;2024-01-25T07:16:48;4.10;99.90
42833;DHT22;64089;51.478;5.692;2024-01-25T07:19:14;4.10;99.90
42833;DHT22;64089;51.478;5.692;2024-01-25T07:21:40;4.00;99.90
42833;DHT22;64089;51.478;5.692;2024-01-25T07:24:06;4.00;99.90
42833;DHT22;64089;51.478;5.692;2024-01-25T07:26:32;4.00;99.90
42833;DHT22;64089;51.478;5.692;2024-01-25T07:28:57;3.90;99.90
42833;DHT22;64089;51.478;5.692;2024-01-25T07:31:26;3.90;99.90
42833;DHT22;64089;51.478;5.692;2024-01-25T07:33:52;3.90;99.90
42833;DHT22;64089;51.478;5.692;2024-01-25T07:36:17;4.00;99.90
42833;DHT22;64089;51.478;5.692;2024-01-25T07:38:44;4.10;99.90
42833;DHT22;64089;51.478;5.692;2024-01-25T07:41:15;4.20;99.90
42833;DHT22;64089;51.478;5.692;2024-01-25T07:43:41;4.30;99.90
42833;DHT22;64089;51.478;5.692;2024-01-25T07:46:07;4.40;99.90
42833;DHT22;64089;51.478;5.692;2024-01-25T07:48:33;4.50;99.90
42833;DHT22;64089;51.478;5.692;2024-01-25T07:50:58;4.60;99.90
42833;DHT22;64089;51.478;5.692;2024-01-25T07:53:24;4.60;99.90
42833;DHT22;64089;51.478;5.692;2024-01-25T07:55:50;4.70;99.90
42833;DHT22;64089;51.478;5.692;2024-01-25T07:58:16;4.70;99.90
42833;DHT22;64089;51.478;5.692;2024-01-25T08:00:41;4.80;99.90
42833;DHT22;64089;51.478;5.692;2024-01-25T08:03:11;4.90;99.90
42833;DHT22;64089;51.478;5.692;2024-01-25T08:05:36;5.00;99.90
42833;DHT22;64089;51.478;5.692;2024-01-25T08:08:02;5.10;99.90
42833;DHT22;64089;51.478;5.692;2024-01-25T08:10:28;5.10;99.90
42833;DHT22;64089;51.478;5.692;2024-01-25T08:12:54;5.10;99.90
42833;DHT22;64089;51.478;5.692;2024-01-25T08:15:19;5.10;99.90
42833;DHT22;64089;51.478;5.692;2024-01-25T08:17:45;5.20;99.90
42833;DHT22;64089;51.478;5.692;2024-01-25T08:20:11;5.20;99.90
42833;DHT22;64089;51.478;5.692;2024-01-25T08:22:40;5.20;99.90
42833;DHT22;64089;51.478;5.692;2024-01-25T08:25:06;5.30;99.90
42833;DHT22;64089;51.478;5.692;2024-01-25T08:27:31;5.20;99.90
42833;DHT22;64089;51.478;5.692;2024-01-25T08:29:57;5.30;99.90
42833;DHT22;64089;51.478;5.692;2024-01-25T08:32:23;5.30;99.90
42833;DHT22;64089;51.478;5.692;2024-01-25T08:34:48;5.40;99.90
42833;DHT22;64089;51.478;5.692;2024-01-25T08:37:17;5.40;99.90
42833;DHT22;64089;51.478;5.692;2024-01-25T08:39:43;5.40;99.90
42833;DHT22;64089;51.478;5.692;2024-01-25T08:42:11;5.50;99.90
42833;DHT22;64089;51.478;5.692;2024-01-25T08:44:38;5.60;99.90
42833;DHT22;64089;51.478;5.692;2024-01-25T08:47:04;5.60;99.90
42833;DHT22;64089;51.478;5.692;2024-01-25T08:49:30;5.70;99.90
42833;DHT22;64089;51.478;5.692;2024-01-25T08:51:56;5.70;99.90
42833;DHT22;64089;51.478;5.692;2024-01-25T08:54:21;5.80;99.90
42833;DHT22;64089;51.478;5.692;2024-01-25T08:56:47;5.80;99.90
42833;DHT22;64089;51.478;5.692;2024-01-25T08:59:12;5.90;99.90
42833;DHT22;64089;51.478;5.692;2024-01-25T09:01:38;6.00;99.90
42833;DHT22;64089;51.478;5.692;2024-01-25T09:04:04;6.10;99.90
42833;DHT22;64089;51.478;5.692;2024-01-25T09:06:29;6.20;99.90
42833;DHT22;64089;51.478;5.692;2024-01-25T09:08:55;6.30;99.90
42833;DHT22;64089;51.478;5.692;2024-01-25T09:11:21;6.30;99.90
42833;DHT22;64089;51.478;5.692;2024-01-25T09:13:47;6.40;99.90
42833;DHT22;64089;51.478;5.692;2024-01-25T09:16:13;6.40;99.90
42833;DHT22;64089;51.478;5.692;2024-01-25T09:18:39;6.40;99.90
42833;DHT22;64089;51.478;5.692;2024-01-25T09:21:05;6.40;99.90
42833;DHT22;64089;51.478;5.692;2024-01-25T09:23:30;6.50;99.90
42833;DHT22;64089;51.478;5.692;2024-01-25T09:25:56;6.50;99.90
42833;DHT22;64089;51.478;5.692;2024-01-25T09:28:22;6.60;99.90
42833;DHT22;64089;51.478;5.692;2024-01-25T09:30:47;6.60;99.90
42833;DHT22;64089;51.478;5.692;2024-01-25T09:33:14;6.70;99.90
42833;DHT22;64089;51.478;5.692;2024-01-25T09:35:43;6.70;99.90
42833;DHT22;64089;51.478;5.692;2024-01-25T09:38:12;6.70;99.90
42833;DHT22;64089;51.478;5.692;2024-01-25T09:40:38;6.80;99.90
42833;DHT22;64089;51.478;5.692;2024-01-25T09:43:04;6.90;99.90
42833;DHT22;64089;51.478;5.692;2024-01-25T09:45:31;6.90;99.90
42833;DHT22;64089;51.478;5.692;2024-01-25T09:47:56;7.00;99.90
42833;DHT22;64089;51.478;5.692;2024-01-25T09:50:23;7.10;99.90
42833;DHT22;64089;51.478;5.692;2024-01-25T09:52:54;7.10;99.90
42833;DHT22;64089;51.478;5.692;2024-01-25T09:55:25;7.20;99.90
42833;DHT22;64089;51.478;5.692;2024-01-25T09:57:53;7.30;99.90
42833;DHT22;64089;51.478;5.692;2024-01-25T10:00:20;7.40;99.90
42833;DHT22;64089;51.478;5.692;2024-01-25T10:02:48;7.40;99.90
42833;DHT22;64089;51.478;5.692;2024-01-25T10:05:17;7.40;99.90
42833;DHT22;64089;51.478;5.692;2024-01-25T10:07:45;7.50;99.90
42833;DHT22;64089;51.478;5.692;2024-01-25T10:10:12;7.50;99.90
42833;DHT22;64089;51.478;5.692;2024-01-25T10:12:40;7.50;99.90
42833;DHT22;64089;51.478;5.692;2024-01-25T10:15:06;7.60;99.90
42833;DHT22;64089;51.478;5.692;2024-01-25T10:17:32;7.60;99.90
42833;DHT22;64089;51.478;5.692;2024-01-25T10:19:58;7.60;99.90
42833;DHT22;64089;51.478;5.692;2024-01-25T10:22:24;7.60;99.90
42833;DHT22;64089;51.478;5.692;2024-01-25T10:24:53;7.60;99.90
42833;DHT22;64089;51.478;5.692;2024-01-25T10:27:20;7.60;99.90
42833;DHT22;64089;51.478;5.692;2024-01-25T10:29:47;7.70;99.90
42833;DHT22;64089;51.478;5.692;2024-01-25T10:32:12;7.80;99.90
42833;DHT22;64089;51.478;5.692;2024-01-25T10:34:38;7.90;99.90
42833;DHT22;64089;51.478;5.692;2024-01-25T10:37:07;8.00;99.90
42833;DHT22;64089;51.478;5.692;2024-01-25T10:39:33;8.10;99.90
42833;DHT22;64089;51.478;5.692;2024-01-25T10:42:00;8.20;99.90
42833;DHT22;64089;51.478;5.692;2024-01-25T10:44:26;8.30;99.90
42833;DHT22;64089;51.478;5.692;2024-01-25T10:46:52;8.30;99.90
42833;DHT22;64089;51.478;5.692;2024-01-25T10:49:20;8.30;99.90
42833;DHT22;64089;51.478;5.692;2024-01-25T10:51:47;8.40;99.90
42833;DHT22;64089;51.478;5.692;2024-01-25T10:54:13;8.30;99.90
42833;DHT22;64089;51.478;5.692;2024-01-25T10:56:42;8.40;99.90
42833;DHT22;64089;51.478;5.692;2024-01-25T10:59:10;8.40;99.90
42833;DHT22;64089;51.478;5.692;2024-01-25T11:01:36;8.50;99.90
42833;DHT22;64089;51.478;5.692;2024-01-25T11:04:01;8.50;99.90
42833;DHT22;64089;51.478;5.692;2024-01-25T11:06:28;8.60;99.90
42833;DHT22;64089;51.478;5.692;2024-01-25T11:09:07;8.60;99.90
42833;DHT22;64089;51.478;5.692;2024-01-25T11:11:33;8.70;99.90
42833;DHT22;64089;51.478;5.692;2024-01-25T11:14:01;8.80;99.90
42833;DHT22;64089;51.478;5.692;2024-01-25T11:16:31;8.80;99.90
42833;DHT22;64089;51.478;5.692;2024-01-25T11:18:59;8.80;99.90
42833;DHT22;64089;51.478;5.692;2024-01-25T11:21:50;8.80;99.90
42833;DHT22;64089;51.478;5.692;2024-01-25T11:24:25;8.80;99.90
42833;DHT22;64089;51.478;5.692;2024-01-25T11:26:54;8.90;99.90
42833;DHT22;64089;51.478;5.692;2024-01-25T11:29:21;8.90;99.90
42833;DHT22;64089;51.478;5.692;2024-01-25T11:31:52;9.00;99.90
42833;DHT22;64089;51.478;5.692;2024-01-25T11:34:18;9.00;99.90
42833;DHT22;64089;51.478;5.692;2024-01-25T11:36:45;9.00;99.90
42833;DHT22;64089;51.478;5.692;2024-01-25T11:39:11;9.00;99.90
42833;DHT22;64089;51.478;5.692;2024-01-25T11:41:38;9.00;99.90
42833;DHT22;64089;51.478;5.692;2024-01-25T11:44:04;9.00;99.90
42833;DHT22;64089;51.478;5.692;2024-01-25T11:46:30;9.00;99.90
42833;DHT22;64089;51.478;5.692;2024-01-25T11:48:58;9.10;99.90
42833;DHT22;64089;51.478;5.692;2024-01-25T11:51:24;9.10;99.90
42833;DHT22;64089;51.478;5.692;2024-01-25T11:53:50;9.20;99.90
42833;DHT22;64089;51.478;5.692;2024-01-25T11:56:20;9.20;99.90
42833;DHT22;64089;51.478;5.692;2024-01-25T11:58:47;9.20;99.90
42833;DHT22;64089;51.478;5.692;2024-01-25T12:01:13;9.20;99.90
42833;DHT22;64089;51.478;5.692;2024-01-25T12:03:40;9.30;99.90
42833;DHT22;64089;51.478;5.692;2024-01-25T12:06:06;9.30;99.90
42833;DHT22;64089;51.478;5.692;2024-01-25T12:08:34;9.20;99.90
42833;DHT22;64089;51.478;5.692;2024-01-25T12:11:09;9.20;99.90
42833;DHT22;64089;51.478;5.692;2024-01-25T12:13:38;9.30;99.90
42833;DHT22;64089;51.478;5.692;2024-01-25T12:16:04;9.20;99.90
42833;DHT22;64089;51.478;5.692;2024-01-25T12:18:30;9.10;99.90
42833;DHT22;64089;51.478;5.692;2024-01-25T12:20:59;9.10;99.90
42833;DHT22;64089;51.478;5.692;2024-01-25T12:23:37;9.00;99.90
42833;DHT22;64089;51.478;5.692;2024-01-25T12:26:10;9.00;99.90
42833;DHT22;64089;51.478;5.692;2024-01-25T12:28:37;9.00;99.90
42833;DHT22;64089;51.478;5.692;2024-01-25T12:31:04;9.00;99.90
42833;DHT22;64089;51.478;5.692;2024-01-25T12:33:31;9.00;99.90
42833;DHT22;64089;51.478;5.692;2024-01-25T12:35:57;9.00;99.90
42833;DHT22;64089;51.478;5.692;2024-01-25T12:38:23;9.00;99.90
42833;DHT22;64089;51.478;5.692;2024-01-25T12:40:51;9.00;99.90
42833;DHT22;64089;51.478;5.692;2024-01-25T12:43:18;9.10;99.90
42833;DHT22;64089;51.478;5.692;2024-01-25T12:45:44;9.30;99.90
42833;DHT22;64089;51.478;5.692;2024-01-25T12:48:10;9.40;99.90
42833;DHT22;64089;51.478;5.692;2024-01-25T12:50:36;9.50;99.90
42833;DHT22;64089;51.478;5.692;2024-01-25T12:53:03;9.60;99.90
42833;DHT22;64089;51.478;5.692;2024-01-25T12:55:29;9.60;99.90
42833;DHT22;64089;51.478;5.692;2024-01-25T12:57:56;9.60;99.90
42833;DHT22;64089;51.478;5.692;2024-01-25T13:00:22;9.70;99.90
42833;DHT22;64089;51.478;5.692;2024-01-25T13:02:48;9.70;99.90
42833;DHT22;64089;51.478;5.692;2024-01-25T13:05:14;9.70;99.90
42833;DHT22;64089;51.478;5.692;2024-01-25T13:07:40;9.80;99.90
42833;DHT22;64089;51.478;5.692;2024-01-25T13:10:08;9.70;99.90
42833;DHT22;64089;51.478;5.692;2024-01-25T13:12:33;9.70;99.90
42833;DHT22;64089;51.478;5.692;2024-01-25T13:14:59;9.70;99.90
42833;DHT22;64089;51.478;5.692;2024-01-25T13:17:25;9.70;99.90
42833;DHT22;64089;51.478;5.692;2024-01-25T13:19:53;9.80;99.90
42833;DHT22;64089;51.478;5.692;2024-01-25T13:22:18;9.80;99.90
42833;DHT22;64089;51.478;5.692;2024-01-25T13:24:46;9.70;99.90
42833;DHT22;64089;51.478;5.692;2024-01-25T13:27:12;9.60;99.90
42833;DHT22;64089;51.478;5.692;2024-01-25T13:29:38;9.70;99.90
42833;DHT22;64089;51.478;5.692;2024-01-25T13:32:03;9.70;99.90
42833;DHT22;64089;51.478;5.692;2024-01-25T13:34:29;9.90;99.90
42833;DHT22;64089;51.478;5.692;2024-01-25T13:36:55;9.90;99.90
42833;DHT22;64089;51.478;5.692;2024-01-25T13:39:20;9.60;99.90
42833;DHT22;64089;51.478;5.692;2024-01-25T13:41:47;9.50;99.90
42833;DHT22;64089;51.478;5.692;2024-01-25T13:44:14;9.30;99.90
42833;DHT22;64089;51.478;5.692;2024-01-25T13:46:40;9.20;99.90
42833;DHT22;64089;51.478;5.692;2024-01-25T13:49:05;9.20;99.90
42833;DHT22;64089;51.478;5.692;2024-01-25T13:51:31;9.20;99.90
42833;DHT22;64089;51.478;5.692;2024-01-25T13:53:57;9.10;99.90
42833;DHT22;64089;51.478;5.692;2024-01-25T13:56:22;9.10;99.90
42833;DHT22;64089;51.478;5.692;2024-01-25T13:58:48;9.20;99.90
42833;DHT22;64089;51.478;5.692;2024-01-25T14:01:14;9.20;99.90
42833;DHT22;64089;51.478;5.692;2024-01-25T14:03:40;9.20;99.90
42833;DHT22;64089;51.478;5.692;2024-01-25T14:06:05;9.10;99.90
42833;DHT22;64089;51.478;5.692;2024-01-25T14:08:35;9.10;99.90
42833;DHT22;64089;51.478;5.692;2024-01-25T14:11:01;9.10;99.90
42833;DHT22;64089;51.478;5.692;2024-01-25T14:13:27;9.10;99.90
42833;DHT22;64089;51.478;5.692;2024-01-25T14:15:53;9.10;99.90
42833;DHT22;64089;51.478;5.692;2024-01-25T14:18:18;9.10;99.90
42833;DHT22;64089;51.478;5.692;2024-01-25T14:20:44;9.00;99.90
42833;DHT22;64089;51.478;5.692;2024-01-25T14:23:09;9.00;99.90
42833;DHT22;64089;51.478;5.692;2024-01-25T14:25:35;9.00;99.90
42833;DHT22;64089;51.478;5.692;2024-01-25T14:28:00;9.00;99.90
42833;DHT22;64089;51.478;5.692;2024-01-25T14:30:26;9.10;99.90
42833;DHT22;64089;51.478;5.692;2024-01-25T14:32:52;9.10;99.90
42833;DHT22;64089;51.478;5.692;2024-01-25T14:35:17;9.00;99.90
42833;DHT22;64089;51.478;5.692;2024-01-25T14:37:44;9.00;99.90
42833;DHT22;64089;51.478;5.692;2024-01-25T14:40:10;9.00;99.90
42833;DHT22;64089;51.478;5.692;2024-01-25T14:42:36;9.10;99.90
42833;DHT22;64089;51.478;5.692;2024-01-25T14:45:04;9.10;99.90
42833;DHT22;64089;51.478;5.692;2024-01-25T14:47:30;9.10;99.90
42833;DHT22;64089;51.478;5.692;2024-01-25T14:49:55;9.10;99.90
42833;DHT22;64089;51.478;5.692;2024-01-25T14:52:21;9.00;99.90
42833;DHT22;64089;51.478;5.692;2024-01-25T14:54:46;9.00;99.90
42833;DHT22;64089;51.478;5.692;2024-01-25T14:57:12;8.90;99.90
42833;DHT22;64089;51.478;5.692;2024-01-25T14:59:38;8.80;99.90
42833;DHT22;64089;51.478;5.692;2024-01-25T15:02:03;8.80;99.90
42833;DHT22;64089;51.478;5.692;2024-01-25T15:04:29;8.70;99.90
42833;DHT22;64089;51.478;5.692;2024-01-25T15:06:56;8.70;99.90
42833;DHT22;64089;51.478;5.692;2024-01-25T15:09:21;8.80;99.90
42833;DHT22;64089;51.478;5.692;2024-01-25T15:11:47;9.00;99.90
42833;DHT22;64089;51.478;5.692;2024-01-25T15:14:13;9.00;99.90
42833;DHT22;64089;51.478;5.692;2024-01-25T15:16:39;9.00;99.90
42833;DHT22;64089;51.478;5.692;2024-01-25T15:19:06;8.90;99.90
42833;DHT22;64089;51.478;5.692;2024-01-25T15:21:31;8.90;99.90
42833;DHT22;64089;51.478;5.692;2024-01-25T15:23:57;8.90;99.90
42833;DHT22;64089;51.478;5.692;2024-01-25T15:26:23;8.80;99.90
42833;DHT22;64089;51.478;5.692;2024-01-25T15:28:48;8.80;99.90
42833;DHT22;64089;51.478;5.692;2024-01-25T15:31:15;8.80;99.90
42833;DHT22;64089;51.478;5.692;2024-01-25T15:33:41;8.80;99.90
42833;DHT22;64089;51.478;5.692;2024-01-25T15:36:07;8.80;99.90
42833;DHT22;64089;51.478;5.692;2024-01-25T15:38:32;8.80;99.90